Time;durP1;ratioP1;P1;durP2;ratioP2;P2;SDS_P1;SDS_P2;PMS_P1;PMS_P2;Temp;Humidity;BMP_temperature;BMP_pressure;BME280_temperature;BME280_humidity;BME280_pressure;Samples;Min_cycle;Max_cycle;Signal;HPM_P1;HPM_P2
2022/03/03 00:00:26;;;;;;;16.00;2.22;;;;;;;5.58;100.00;100404.31;5032478;28;20035;-86
2022/03/03 00:02:52;;;;;;;11.75;1.92;;;;;;;5.50;100.00;100392.59;5063593;28;20039;-84
2022/03/03 00:05:18;;;;;;;13.60;2.13;;;;;;;5.09;100.00;100346.00;5054687;28;20035;-85
2022/03/03 00:07:43;;;;;;;12.57;1.70;;;;;;;5.54;100.00;100424.28;5041197;28;20032;-83
2022/03/03 00:10:10;;;;;;;21.67;4.10;;;;;;;5.65;100.00;100427.56;5045904;28;20090;-85
2022/03/03 00:12:35;;;;;;;12.82;3.05;;;;;;;5.75;100.00;100429.31;5045089;28;20041;-85
2022/03/03 00:15:01;;;;;;;19.17;1.85;;;;;;;5.81;100.00;100428.69;5040683;28;20028;-86
2022/03/03 00:17:27;;;;;;;10.00;1.52;;;;;;;5.82;100.00;100433.91;5042842;28;20180;-84
2022/03/03 00:19:53;;;;;;;12.00;2.45;;;;;;;5.57;100.00;100434.63;5042110;28;20123;-85
2022/03/03 00:22:18;;;;;;;7.18;1.13;;;;;;;5.34;100.00;100445.72;5023872;28;20041;-85
2022/03/03 00:24:44;;;;;;;14.23;2.30;;;;;;;5.10;100.00;100435.63;5055710;28;20032;-84
2022/03/03 00:27:11;;;;;;;7.50;2.10;;;;;;;4.98;100.00;100448.31;5057511;28;20496;-84
2022/03/03 00:29:36;;;;;;;12.15;2.88;;;;;;;4.60;100.00;100425.31;5057671;28;20035;-84
2022/03/03 00:32:02;;;;;;;12.57;2.35;;;;;;;4.45;100.00;100443.59;5039724;28;20049;-84
2022/03/03 00:34:28;;;;;;;6.95;1.60;;;;;;;4.22;100.00;100458.19;5040698;28;20527;-84
2022/03/03 00:36:53;;;;;;;12.82;2.55;;;;;;;3.83;100.00;100435.09;5039066;28;20058;-83
2022/03/03 00:39:19;;;;;;;11.30;2.00;;;;;;;3.86;100.00;100460.59;5059569;28;20028;-88
2022/03/03 00:41:45;;;;;;;5.53;1.75;;;;;;;3.66;100.00;100455.25;5027913;28;20171;-84
2022/03/03 00:44:10;;;;;;;10.40;1.85;;;;;;;3.49;100.00;100451.47;5045079;28;20048;-84
2022/03/03 00:46:37;;;;;;;9.23;1.83;;;;;;;3.37;100.00;100460.53;5044002;28;20046;-84
2022/03/03 00:49:03;;;;;;;9.57;2.05;;;;;;;3.02;100.00;100429.97;5044691;28;20130;-87
2022/03/03 00:51:30;;;;;;;17.60;3.83;;;;;;;3.13;100.00;100446.78;5028793;28;20310;-88
2022/03/03 00:53:55;;;;;;;13.55;2.08;;;;;;;3.01;100.00;100449.50;5041582;28;20101;-85
2022/03/03 00:56:21;;;;;;;10.95;1.50;;;;;;;2.95;100.00;100457.19;5046232;28;20060;-89
2022/03/03 00:58:47;;;;;;;11.77;1.88;;;;;;;2.92;100.00;100450.34;5033233;28;20041;-85
2022/03/03 01:01:13;;;;;;;10.05;2.83;;;;;;;3.04;100.00;100459.03;5045944;28;20056;-85
2022/03/03 01:03:41;;;;;;;7.63;1.95;;;;;;;3.14;100.00;100456.41;5028907;28;20032;-87
2022/03/03 01:06:10;;;;;;;9.55;1.95;;;;;;;3.28;100.00;100469.31;5045837;28;20426;-86
2022/03/03 01:08:36;;;;;;;12.10;2.03;;;;;;;3.28;100.00;100451.56;5047323;28;20068;-85
2022/03/03 01:11:03;;;;;;;11.02;1.92;;;;;;;3.49;100.00;100463.91;5050227;28;20071;-84
2022/03/03 01:13:29;;;;;;;13.95;2.42;;;;;;;3.67;100.00;100464.91;5033206;28;20098;-84
2022/03/03 01:15:54;;;;;;;9.85;1.85;;;;;;;3.61;100.00;100454.84;5065941;28;20515;-84
2022/03/03 01:18:20;;;;;;;14.38;2.20;;;;;;;3.70;100.00;100469.13;5035620;28;20402;-85
2022/03/03 01:20:46;;;;;;;10.75;1.75;;;;;;;3.61;100.00;100468.13;5027068;28;20134;-87
2022/03/03 01:23:12;;;;;;;10.18;1.60;;;;;;;3.64;100.00;100478.50;5048194;28;20048;-84
2022/03/03 01:25:38;;;;;;;13.05;2.00;;;;;;;3.82;100.00;100485.78;5053341;28;20203;-84
2022/03/03 01:28:04;;;;;;;8.18;1.83;;;;;;;3.90;100.00;100486.78;5033279;28;20032;-84
2022/03/03 01:30:29;;;;;;;8.07;2.42;;;;;;;4.03;100.00;100488.31;5048989;28;20036;-85
2022/03/03 01:32:55;;;;;;;11.68;2.08;;;;;;;4.01;100.00;100487.63;5029828;28;20135;-84
2022/03/03 01:35:21;;;;;;;8.32;2.08;;;;;;;4.11;100.00;100497.28;5032737;28;20033;-85
2022/03/03 01:37:46;;;;;;;10.07;1.85;;;;;;;4.10;100.00;100481.44;5046202;28;20104;-85
2022/03/03 01:40:12;;;;;;;12.85;1.95;;;;;;;4.29;100.00;100504.56;5036472;28;20043;-86
2022/03/03 01:42:38;;;;;;;10.52;2.20;;;;;;;4.30;100.00;100492.94;5046916;28;20036;-84
2022/03/03 01:45:05;;;;;;;9.10;1.67;;;;;;;4.32;100.00;100494.47;5069517;28;20171;-84
2022/03/03 01:47:31;;;;;;;12.10;2.30;;;;;;;4.28;100.00;100509.03;5062413;28;20059;-86
2022/03/03 01:49:57;;;;;;;10.23;2.22;;;;;;;4.12;100.00;100490.13;5045256;28;20052;-85
2022/03/03 01:52:24;;;;;;;8.77;1.58;;;;;;;4.19;100.00;100510.72;5047901;28;20486;-85
2022/03/03 01:54:50;;;;;;;12.30;2.05;;;;;;;3.92;100.00;100455.56;5061435;28;20501;-84
2022/03/03 01:57:17;;;;;;;13.43;2.78;;;;;;;4.36;100.00;100518.97;5034567;28;20029;-85
2022/03/03 01:59:43;;;;;;;10.30;2.25;;;;;;;4.31;100.00;100506.09;5035681;28;20159;-86
2022/03/03 02:02:10;;;;;;;10.80;1.80;;;;;;;4.24;100.00;100526.28;5067968;28;20127;-84
2022/03/03 02:04:40;;;;;;;14.10;2.55;;;;;;;4.00;100.00;100520.53;5044597;28;20028;-84
2022/03/03 02:07:07;;;;;;;11.18;1.60;;;;;;;3.72;100.00;100512.38;5067002;28;20035;-84
2022/03/03 02:09:34;;;;;;;10.02;2.40;;;;;;;3.56;100.00;100518.22;5049846;28;20086;-86
2022/03/03 02:12:00;;;;;;;12.07;1.77;;;;;;;3.49;100.00;100517.94;5029979;28;20225;-85
2022/03/03 02:14:25;;;;;;;10.70;1.83;;;;;;;3.23;100.00;100492.81;5031312;28;20492;-84
2022/03/03 02:16:51;;;;;;;11.52;1.73;;;;;;;3.20;100.00;100509.88;5042776;28;20020;-84
2022/03/03 02:19:18;;;;;;;7.93;1.55;;;;;;;3.02;100.00;100522.94;5026263;28;20063;-84
2022/03/03 02:21:49;;;;;;;12.90;2.08;;;;;;;2.84;100.00;100520.03;5042897;28;20118;-84
2022/03/03 02:24:15;;;;;;;10.32;2.55;;;;;;;2.76;100.00;100524.34;5051249;28;20393;-86
2022/03/03 02:26:41;;;;;;;8.93;2.30;;;;;;;2.58;100.00;100513.47;5031548;28;20480;-85
2022/03/03 02:29:06;;;;;;;13.20;2.08;;;;;;;2.41;100.00;100504.28;5047685;28;20042;-84
2022/03/03 02:31:32;;;;;;;7.80;1.77;;;;;;;2.50;100.00;100524.72;5048195;28;20041;-84
2022/03/03 02:33:58;;;;;;;5.10;1.10;;;;;;;2.33;100.00;100504.06;5039438;28;20535;-84
2022/03/03 02:36:26;;;;;;;11.68;2.00;;;;;;;2.50;100.00;100529.19;5024436;28;20052;-84
2022/03/03 02:38:52;;;;;;;6.93;1.88;;;;;;;2.53;100.00;100520.97;5085952;28;20138;-84
2022/03/03 02:41:19;;;;;;;13.25;2.28;;;;;;;2.51;100.00;100512.28;5064687;28;20024;-86
2022/03/03 02:43:45;;;;;;;11.40;2.53;;;;;;;2.62;100.00;100534.31;5031046;28;20057;-85
2022/03/03 02:46:11;;;;;;;13.63;2.13;;;;;;;2.49;100.00;100528.38;5049228;28;20560;-85
2022/03/03 02:48:37;;;;;;;18.92;2.35;;;;;;;2.38;100.00;100536.34;5049468;28;20106;-86
2022/03/03 02:51:06;;;;;;;7.20;1.60;;;;;;;2.19;100.00;100537.88;5064122;28;20440;-85
2022/03/03 02:53:33;;;;;;;8.75;1.38;;;;;;;1.91;100.00;100535.84;5028851;28;20045;-85
2022/03/03 02:55:59;;;;;;;11.50;1.30;;;;;;;1.77;100.00;100542.25;5031661;28;20091;-87
2022/03/03 02:58:24;;;;;;;10.40;2.08;;;;;;;1.73;100.00;100552.28;5043515;28;20036;-88
2022/03/03 03:00:50;;;;;;;9.82;1.73;;;;;;;1.60;100.00;100524.25;5049089;28;20114;-85
2022/03/03 03:03:18;;;;;;;5.22;1.30;;;;;;;1.54;100.00;100537.03;5065016;28;20032;-86
2022/03/03 03:05:44;;;;;;;10.93;1.83;;;;;;;1.48;100.00;100553.41;5032458;28;20371;-84
2022/03/03 03:08:10;;;;;;;5.88;1.50;;;;;;;1.32;100.00;100555.56;5025522;28;20047;-84
2022/03/03 03:10:36;;;;;;;8.25;1.67;;;;;;;1.19;100.00;100563.66;5033760;28;20098;-84
2022/03/03 03:13:03;;;;;;;9.98;1.90;;;;;;;1.01;100.00;100568.59;5032168;28;20048;-85
2022/03/03 03:15:28;;;;;;;9.10;1.70;;;;;;;0.95;100.00;100562.91;5054329;28;20040;-85
2022/03/03 03:17:54;;;;;;;5.93;1.85;;;;;;;0.91;100.00;100566.78;5057504;28;20494;-84
2022/03/03 03:20:22;;;;;;;10.00;2.40;;;;;;;1.03;100.00;100561.38;5042744;28;20535;-85
2022/03/03 03:22:49;;;;;;;9.30;1.70;;;;;;;1.00;100.00;100564.22;5028825;28;20036;-85
2022/03/03 03:25:15;;;;;;;8.77;2.30;;;;;;;0.84;100.00;100563.75;5048752;28;20066;-83
2022/03/03 03:27:41;;;;;;;5.65;2.30;;;;;;;0.61;100.00;100554.94;5060918;28;20057;-84
2022/03/03 03:30:10;;;;;;;9.73;2.40;;;;;;;0.54;100.00;100545.78;5064489;28;20543;-84
2022/03/03 03:32:35;;;;;;;14.27;2.72;;;;;;;0.57;100.00;100564.03;5056225;28;20048;-84
2022/03/03 03:35:02;;;;;;;9.40;2.42;;;;;;;0.59;100.00;100580.66;5032003;28;20131;-84
2022/03/03 03:37:28;;;;;;;11.32;3.47;;;;;;;0.56;100.00;100551.78;5064835;28;20536;-84
2022/03/03 03:39:56;;;;;;;20.08;5.40;;;;;;;0.93;100.00;100571.00;5030616;28;20066;-84
2022/03/03 03:42:22;;;;;;;26.95;8.10;;;;;;;1.24;100.00;100574.72;5048577;28;20638;-83
2022/03/03 03:44:48;;;;;;;26.63;5.20;;;;;;;1.39;100.00;100580.63;5046341;28;20430;-84
2022/03/03 03:47:13;;;;;;;13.65;2.53;;;;;;;1.52;100.00;100589.28;5063242;28;20028;-85
2022/03/03 03:49:40;;;;;;;8.05;1.90;;;;;;;1.30;100.00;100553.06;5050087;28;21981;-84
2022/03/03 03:52:06;;;;;;;6.85;1.55;;;;;;;1.26;100.00;100580.75;5046519;28;20064;-86
2022/03/03 03:54:33;;;;;;;5.72;2.35;;;;;;;1.12;100.00;100583.63;5046292;28;20054;-85
2022/03/03 03:56:59;;;;;;;11.07;1.80;;;;;;;0.98;100.00;100592.66;5066802;28;20028;-84
2022/03/03 03:59:24;;;;;;;7.72;1.83;;;;;;;0.65;100.00;100572.25;5043271;28;20033;-84
2022/03/03 04:01:50;;;;;;;7.50;1.83;;;;;;;0.62;100.00;100588.34;5044886;28;20047;-84
2022/03/03 04:04:16;;;;;;;5.38;1.50;;;;;;;0.39;100.00;100572.41;5041601;28;20063;-86
2022/03/03 04:06:42;;;;;;;11.23;2.42;;;;;;;0.51;100.00;100588.34;5060916;28;20497;-85
2022/03/03 04:09:07;;;;;;;12.93;1.95;;;;;;;0.41;100.00;100596.94;5035746;28;20032;-85
2022/03/03 04:11:33;;;;;;;9.70;1.75;;;;;;;0.24;100.00;100599.16;5043860;28;20083;-83
2022/03/03 04:13:59;;;;;;;10.30;2.20;;;;;;;0.03;100.00;100591.84;5060194;28;20050;-84
2022/03/03 04:16:25;;;;;;;11.50;2.05;;;;;;;-0.10;100.00;100591.91;5032512;28;20043;-83
2022/03/03 04:18:51;;;;;;;8.82;1.63;;;;;;;-0.22;100.00;100595.41;5064270;28;20552;-84
2022/03/03 04:21:16;;;;;;;8.80;2.05;;;;;;;-0.37;100.00;100576.25;5029081;28;20081;-84
2022/03/03 04:23:42;;;;;;;9.57;1.80;;;;;;;-0.48;100.00;100555.00;5028400;28;20534;-84
2022/03/03 04:26:09;;;;;;;7.05;2.00;;;;;;;-0.39;100.00;100569.38;5045665;28;20421;-84
2022/03/03 04:28:34;;;;;;;17.67;4.18;;;;;;;-0.28;100.00;100590.59;5062597;28;20041;-84
2022/03/03 04:31:00;;;;;;;20.75;5.78;;;;;;;-0.32;100.00;100594.38;5063558;28;20037;-86
2022/03/03 04:33:26;;;;;;;9.10;2.97;;;;;;;-0.41;100.00;100592.41;5032607;28;20503;-83
2022/03/03 04:35:52;;;;;;;8.57;2.85;;;;;;;-0.52;100.00;100586.09;5065269;28;20028;-84
2022/03/03 04:38:17;;;;;;;7.53;3.05;;;;;;;-0.50;100.00;100601.84;5060464;28;20366;-83
2022/03/03 04:40:43;;;;;;;5.78;2.55;;;;;;;-0.68;100.00;100598.69;5049480;28;20528;-85
2022/03/03 04:43:08;;;;;;;11.43;3.50;;;;;;;-0.82;100.00;100598.78;5046515;28;20161;-84
2022/03/03 04:45:34;;;;;;;15.38;3.92;;;;;;;-0.94;100.00;100605.78;5042737;28;20048;-83
2022/03/03 04:48:00;;;;;;;9.60;2.55;;;;;;;-1.05;100.00;100609.16;5032848;28;20072;-83
2022/03/03 04:50:26;;;;;;;7.28;1.92;;;;;;;-1.06;100.00;100615.38;5044993;28;20037;-84
2022/03/03 04:52:51;;;;;;;3.70;1.52;;;;;;;-1.15;100.00;100590.47;5051485;28;20485;-83
2022/03/03 04:55:17;;;;;;;5.35;1.35;;;;;;;-0.97;100.00;100608.63;5065468;28;20032;-83
2022/03/03 04:57:42;;;;;;;9.45;2.33;;;;;;;-0.88;100.00;100627.31;5073767;28;20571;-83
2022/03/03 05:00:09;;;;;;;5.18;1.70;;;;;;;-0.89;100.00;100628.25;5050213;28;20052;-83
2022/03/03 05:02:35;;;;;;;6.47;1.98;;;;;;;-0.89;100.00;100628.25;5044258;28;20044;-83
2022/03/03 05:05:00;;;;;;;7.07;1.40;;;;;;;-1.12;100.00;100607.88;5037269;28;20083;-83
2022/03/03 05:07:26;;;;;;;3.30;1.27;;;;;;;-1.02;100.00;100635.34;5044802;28;20111;-85
2022/03/03 05:09:52;;;;;;;4.35;1.42;;;;;;;-1.25;100.00;100622.84;5030980;28;20033;-83
2022/03/03 05:12:17;;;;;;;8.10;1.75;;;;;;;-1.33;100.00;100620.72;5049428;28;20029;-84
2022/03/03 05:14:43;;;;;;;2.90;1.30;;;;;;;-1.26;100.00;100639.63;5056763;28;20492;-83
2022/03/03 05:17:08;;;;;;;1.60;0.95;;;;;;;-1.22;100.00;100641.94;5027679;28;20031;-86
2022/03/03 05:19:34;;;;;;;2.90;1.08;;;;;;;-1.29;100.00;100647.75;5059267;28;20028;-83
2022/03/03 05:22:00;;;;;;;8.63;1.98;;;;;;;-1.37;100.00;100646.47;5041638;28;20025;-84
2022/03/03 05:24:28;;;;;;;9.23;1.33;;;;;;;-1.24;100.00;100653.59;5031183;28;20402;-83
2022/03/03 05:26:54;;;;;;;5.75;1.17;;;;;;;-1.23;100.00;100655.25;5025614;28;20193;-84
2022/03/03 05:29:20;;;;;;;7.60;1.23;;;;;;;-1.21;100.00;100653.38;5028792;28;20039;-83
2022/03/03 05:31:46;;;;;;;6.40;1.10;;;;;;;-1.19;100.00;100662.00;5026651;28;20032;-83
2022/03/03 05:34:13;;;;;;;4.82;0.93;;;;;;;-1.32;100.00;100643.53;5049707;28;20025;-83
2022/03/03 05:36:40;;;;;;;2.40;1.30;;;;;;;-1.28;100.00;100665.28;5072318;28;20031;-83
2022/03/03 05:39:06;;;;;;;4.10;1.40;;;;;;;-1.40;100.00;100673.06;5032630;28;20039;-84
2022/03/03 05:41:32;;;;;;;5.55;1.13;;;;;;;-1.46;100.00;100675.22;5060047;28;20421;-85
2022/03/03 05:43:58;;;;;;;4.63;0.90;;;;;;;-1.64;100.00;100650.91;5049461;28;20060;-84
2022/03/03 05:46:24;;;;;;;4.63;1.25;;;;;;;-1.47;100.00;100677.03;5031525;28;20486;-83
2022/03/03 05:48:50;;;;;;;5.53;1.30;;;;;;;-1.46;100.00;100676.06;5047888;28;20028;-83
2022/03/03 05:51:17;;;;;;;4.20;1.42;;;;;;;-1.53;100.00;100681.84;5033652;28;20081;-84
2022/03/03 05:53:43;;;;;;;1.73;0.60;;;;;;;-1.52;100.00;100681.75;5048043;28;20082;-84
2022/03/03 05:56:10;;;;;;;6.30;2.05;;;;;;;-1.37;100.00;100693.09;5032698;28;20405;-84
2022/03/03 05:58:49;;;;;;;6.63;1.73;;;;;;;-1.27;100.00;100696.84;5062324;28;20079;-84
2022/03/03 06:01:21;;;;;;;6.13;1.35;;;;;;;-1.24;100.00;100693.16;5051092;28;20029;-83
2022/03/03 06:03:47;;;;;;;9.45;1.52;;;;;;;-1.22;100.00;100699.16;5051408;28;20077;-84
2022/03/03 06:06:18;;;;;;;8.93;1.38;;;;;;;-1.39;100.00;100674.72;5034996;28;20059;-84
2022/03/03 06:08:58;;;;;;;4.70;1.40;;;;;;;-1.26;100.00;100703.78;5054410;28;20045;-84
2022/03/03 06:11:27;;;;;;;6.72;1.50;;;;;;;-1.30;100.00;100706.72;5068646;28;20556;-84
2022/03/03 06:14:04;;;;;;;4.55;1.73;;;;;;;-1.50;100.00;100695.69;5063503;28;20036;-84
2022/03/03 06:16:30;;;;;;;1.70;1.50;;;;;;;-1.42;100.00;100706.59;5031022;28;20040;-85
2022/03/03 06:18:58;;;;;;;4.75;2.33;;;;;;;-1.27;100.00;100709.16;5066619;28;20056;-84
2022/03/03 06:21:23;;;;;;;3.97;1.48;;;;;;;-1.38;100.00;100694.88;5049138;28;20048;-84
2022/03/03 06:23:51;;;;;;;5.32;1.40;;;;;;;-1.34;100.00;100714.00;5067956;28;20102;-84
2022/03/03 06:26:19;;;;;;;8.23;1.48;;;;;;;-1.41;100.00;100707.44;5064748;28;20036;-83
2022/03/03 06:28:46;;;;;;;3.47;0.63;;;;;;;-1.47;100.00;100710.47;5057517;28;20036;-83
2022/03/03 06:31:12;;;;;;;7.03;1.30;;;;;;;-1.68;100.00;100697.72;5047160;28;20040;-83
2022/03/03 06:33:39;;;;;;;5.40;1.40;;;;;;;-1.61;100.00;100717.50;5057311;28;20999;-84
2022/03/03 06:36:05;;;;;;;4.50;1.30;;;;;;;-1.60;100.00;100719.16;5049414;28;20037;-83
2022/03/03 06:38:30;;;;;;;9.75;2.15;;;;;;;-1.78;100.00;100726.44;5031778;28;20734;-84
2022/03/03 06:40:57;;;;;;;10.38;1.92;;;;;;;-1.90;100.00;100731.69;5065271;28;20024;-83
2022/03/03 06:43:24;;;;;;;7.57;2.50;;;;;;;-1.83;100.00;100736.44;5031824;28;20541;-83
2022/03/03 06:45:51;;;;;;;4.20;2.53;;;;;;;-1.65;100.00;100736.22;5061363;28;20461;-84
2022/03/03 06:48:16;;;;;;;10.38;1.98;;;;;;;-1.47;100.00;100737.69;5045359;28;20065;-83
2022/03/03 06:50:43;;;;;;;10.35;2.72;;;;;;;-1.56;100.00;100714.56;5050146;28;20389;-83
2022/03/03 06:53:11;;;;;;;15.25;3.08;;;;;;;-1.45;100.00;100751.63;5041548;28;20138;-82
2022/03/03 06:55:37;;;;;;;8.45;3.05;;;;;;;-1.50;100.00;100751.06;5041352;28;20037;-84
2022/03/03 06:58:03;;;;;;;8.73;2.65;;;;;;;-1.52;100.00;100755.59;5057617;28;20052;-85
2022/03/03 07:00:33;;;;;;;7.25;2.50;;;;;;;-1.59;100.00;100751.66;5039598;28;20040;-84
2022/03/03 07:03:01;;;;;;;7.90;2.35;;;;;;;-1.65;100.00;100760.81;5026696;28;20029;-84
2022/03/03 07:05:28;;;;;;;13.82;2.67;;;;;;;-1.72;100.00;100761.28;5058548;28;20473;-85
2022/03/03 07:07:55;;;;;;;8.68;2.13;;;;;;;-1.85;100.00;100759.44;5041911;28;20036;-84
2022/03/03 07:10:24;;;;;;;8.55;2.08;;;;;;;-1.79;100.00;100769.59;5059492;28;20381;-83
2022/03/03 07:12:54;;;;;;;6.57;1.80;;;;;;;-1.82;100.00;100780.31;5026082;28;20029;-86
2022/03/03 07:15:24;;;;;;;4.63;1.85;;;;;;;-1.89;100.00;100775.53;5041684;28;20940;-84
2022/03/03 07:17:53;;;;;;;8.98;2.03;;;;;;;-2.01;100.00;100769.25;5057836;28;20053;-84
2022/03/03 07:21:04;;;;;;;8.23;2.05;;;;;;;-1.93;100.00;100788.06;5039732;28;20260;-83
2022/03/03 07:23:38;;;;;;;2.83;1.47;;;;;;;-1.99;100.00;100783.16;5018206;28;20150;-84
2022/03/03 07:26:10;;;;;;;7.07;2.25;;;;;;;-2.01;100.00;100798.22;5042830;28;20029;-84
2022/03/03 07:28:40;;;;;;;4.07;1.85;;;;;;;-2.09;100.00;100792.56;5057570;28;20405;-83
2022/03/03 07:31:07;;;;;;;15.38;1.90;;;;;;;-2.04;100.00;100808.94;5041977;28;20038;-84
2022/03/03 07:33:42;;;;;;;7.00;2.42;;;;;;;-2.04;100.00;100811.56;5058306;28;20119;-84
2022/03/03 07:36:09;;;;;;;8.32;1.92;;;;;;;-2.03;100.00;100811.47;5058953;28;20040;-83
2022/03/03 07:38:37;;;;;;;4.30;1.58;;;;;;;-1.85;100.00;100832.38;5058330;28;20087;-83
2022/03/03 07:41:03;;;;;;;4.40;1.80;;;;;;;-1.87;100.00;100839.53;5034519;28;20028;-83
2022/03/03 07:43:29;;;;;;;8.25;2.28;;;;;;;-1.84;100.00;100834.91;5059939;28;20044;-84
2022/03/03 07:45:54;;;;;;;5.10;1.80;;;;;;;-1.71;100.00;100834.16;5036012;28;20024;-83
2022/03/03 07:48:23;;;;;;;3.45;1.30;;;;;;;-1.62;100.00;100829.16;5056667;28;20036;-84
2022/03/03 07:50:49;;;;;;;8.68;2.17;;;;;;;-1.26;100.00;100861.25;5025788;28;20035;-84
2022/03/03 07:53:15;;;;;;;9.18;1.85;;;;;;;-1.02;100.00;100846.47;5042033;28;20024;-84
2022/03/03 07:55:50;;;;;;;10.10;1.88;;;;;;;-0.67;100.00;100848.59;5067673;28;20102;-84
2022/03/03 07:58:18;;;;;;;8.68;1.75;;;;;;;-0.43;100.00;100837.34;5070121;28;20032;-84
2022/03/03 08:00:48;;;;;;;5.07;1.42;;;;;;;0.11;100.00;100860.97;5063326;28;20025;-84
2022/03/03 08:03:19;;;;;;;9.15;1.75;;;;;;;0.40;100.00;100854.50;5036801;28;20040;-84
2022/03/03 08:05:48;;;;;;;7.78;1.98;;;;;;;0.54;100.00;100857.97;5032633;28;20040;-84
2022/03/03 08:08:16;;;;;;;6.93;1.40;;;;;;;0.65;100.00;100850.09;5060305;28;20066;-84
2022/03/03 08:10:43;;;;;;;6.82;1.73;;;;;;;1.24;100.00;100879.31;5049038;28;20020;-84
2022/03/03 08:13:15;;;;;;;9.45;1.95;;;;;;;1.33;100.00;100883.13;5071062;28;20047;-84
2022/03/03 08:15:45;;;;;;;8.23;1.85;;;;;;;1.50;100.00;100884.50;5065414;28;20562;-84
2022/03/03 08:18:11;;;;;;;3.53;1.48;;;;;;;1.36;100.00;100858.19;5033701;28;20464;-84
2022/03/03 08:20:38;;;;;;;11.07;2.08;;;;;;;1.50;100.00;100893.28;5032913;28;20036;-85
2022/03/03 08:23:05;;;;;;;7.50;1.92;;;;;;;1.67;100.00;100886.75;5066474;28;20040;-84
2022/03/03 08:25:32;;;;;;;8.55;2.03;;;;;;;2.32;100.00;100903.88;5033191;28;20044;-85
2022/03/03 08:27:59;;;;;;;8.15;2.58;;;;;;;2.71;100.00;100887.63;5045134;28;20036;-85
2022/03/03 08:30:24;;;;;;;11.18;1.92;;;;;;;2.98;100.00;100893.34;5039670;28;20037;-85
2022/03/03 08:33:00;;;;;;;7.20;1.50;;;;;;;3.27;100.00;100904.28;5034058;28;20122;-86
2022/03/03 08:35:28;;;;;;;7.88;1.67;;;;;;;3.39;100.00;100897.13;5049905;28;20116;-86
2022/03/03 08:37:59;;;;;;;7.35;1.90;;;;;;;4.14;100.00;100893.50;5049927;28;20566;-84
2022/03/03 08:40:25;;;;;;;7.03;2.17;;;;;;;5.12;98.59;100892.06;5048811;28;20106;-84
2022/03/03 08:42:57;;;;;;;6.20;1.98;;;;;;;5.80;95.58;100893.97;5050207;28;20040;-84
2022/03/03 08:45:28;;;;;;;4.85;2.40;;;;;;;6.29;93.89;100884.06;5034942;28;20119;-84
2022/03/03 08:48:10;;;;;;;5.70;2.33;;;;;;;7.36;91.01;100903.09;5033363;28;20037;-83
2022/03/03 08:50:38;;;;;;;8.23;2.70;;;;;;;8.20;87.50;100899.13;5048697;28;20511;-85
2022/03/03 08:53:05;;;;;;;8.07;2.55;;;;;;;8.51;85.93;100882.59;5051077;28;20465;-85
2022/03/03 08:55:32;;;;;;;8.63;2.30;;;;;;;8.95;84.61;100901.25;5034859;28;20044;-86
2022/03/03 08:57:58;;;;;;;8.00;2.58;;;;;;;9.40;84.11;100900.88;5032871;28;20483;-86
2022/03/03 09:00:27;;;;;;;9.60;2.17;;;;;;;9.79;81.70;100894.91;5070273;28;20474;-84
2022/03/03 09:02:53;;;;;;;6.53;1.92;;;;;;;10.05;81.19;100899.22;5070350;28;20032;-85
2022/03/03 09:05:19;;;;;;;8.63;1.75;;;;;;;9.84;83.03;100897.06;5049658;28;20071;-84
2022/03/03 09:07:46;;;;;;;4.60;2.05;;;;;;;8.46;89.14;100896.47;5034095;28;20109;-85
2022/03/03 09:10:12;;;;;;;5.22;2.13;;;;;;;9.30;86.19;100878.72;5028886;28;20037;-84
2022/03/03 09:12:38;;;;;;;6.63;2.35;;;;;;;10.81;83.38;100916.75;5050762;28;20069;-85
2022/03/03 09:15:05;;;;;;;8.85;2.70;;;;;;;11.79;80.39;100915.38;5034393;28;20040;-85
2022/03/03 09:17:31;;;;;;;11.45;3.13;;;;;;;12.46;78.28;100914.66;5052977;28;20037;-86
2022/03/03 09:19:57;;;;;;;99.65;29.50;;;;;;;12.91;77.29;100875.00;5038033;28;20032;-86
2022/03/03 09:22:23;;;;;;;33.53;8.68;;;;;;;13.81;75.89;100880.00;5067879;28;20277;-85
2022/03/03 09:24:48;;;;;;;31.17;10.30;;;;;;;14.46;73.65;100915.84;5070979;28;20032;-85
2022/03/03 09:27:16;;;;;;;24.70;9.02;;;;;;;15.11;72.21;100931.88;5054088;28;20389;-84
2022/03/03 09:29:42;;;;;;;14.73;3.38;;;;;;;15.09;67.84;100923.13;5049546;28;20486;-91
2022/03/03 09:32:09;;;;;;;15.07;3.58;;;;;;;15.06;70.10;100927.06;5032964;28;20037;-87
2022/03/03 09:34:35;;;;;;;14.35;4.60;;;;;;;15.30;69.26;100912.16;5052648;28;20036;-89
2022/03/03 09:37:01;;;;;;;22.48;6.13;;;;;;;15.38;67.30;100922.81;5049067;28;20047;-84
2022/03/03 09:39:28;;;;;;;15.80;3.70;;;;;;;15.31;67.64;100946.34;5064133;28;20032;-88
2022/03/03 09:41:54;;;;;;;17.85;3.83;;;;;;;15.51;66.87;100937.47;5067694;28;20067;-88
2022/03/03 09:44:26;;;;;;;13.77;3.20;;;;;;;15.73;66.77;100943.59;5033703;28;20174;-88
2022/03/03 09:46:53;;;;;;;10.80;2.88;;;;;;;15.48;68.55;100945.97;5050485;28;20048;-90
2022/03/03 09:49:18;;;;;;;14.13;3.50;;;;;;;15.43;67.43;100945.75;5047825;28;20178;-87
2022/03/03 09:51:47;;;;;;;12.43;3.63;;;;;;;15.50;68.13;100922.22;5043479;28;20040;-86
2022/03/03 09:54:13;;;;;;;12.50;3.47;;;;;;;15.80;67.39;100925.47;5038629;28;20115;-88
2022/03/03 09:56:39;;;;;;;16.63;3.47;;;;;;;16.52;67.57;100942.78;5069403;28;20052;-88
2022/03/03 09:59:07;;;;;;;12.50;3.30;;;;;;;17.06;67.34;100951.69;5065167;28;20606;-86
2022/03/03 10:01:33;;;;;;;12.77;3.72;;;;;;;17.82;66.80;100956.38;5050775;28;20036;-86
2022/03/03 10:04:18;;;;;;;16.50;3.78;;;;;;;18.59;64.07;100965.19;5037833;28;20047;-85
2022/03/03 10:06:44;;;;;;;12.93;3.30;;;;;;;19.16;62.72;100959.63;5053008;28;20040;-85
2022/03/03 10:09:10;;;;;;;12.35;3.08;;;;;;;19.23;60.42;100978.59;5033943;28;20060;-83
2022/03/03 10:11:41;;;;;;;9.88;2.80;;;;;;;19.36;61.77;100964.81;5061255;28;20441;-84
2022/03/03 10:14:07;;;;;;;7.50;2.60;;;;;;;19.37;60.27;100968.38;5049400;28;20063;-84
2022/03/03 10:16:34;;;;;;;10.50;2.97;;;;;;;19.11;59.09;100967.66;5029409;28;20028;-85
2022/03/03 10:19:03;;;;;;;14.57;3.33;;;;;;;19.43;60.97;100975.66;5027906;28;20036;-83
2022/03/03 10:21:35;;;;;;;9.82;2.47;;;;;;;19.89;60.73;100979.66;5049055;28;20512;-82
2022/03/03 10:24:24;;;;;;;12.30;3.63;;;;;;;20.37;58.66;100981.44;5037906;28;20052;-83
2022/03/03 10:27:08;;;;;;;9.68;2.58;;;;;;;20.71;54.00;100988.03;5060100;28;20409;-83
2022/03/03 10:29:34;;;;;;;12.38;3.00;;;;;;;20.79;52.58;100990.41;5050935;28;20040;-84
2022/03/03 10:32:02;;;;;;;12.40;2.67;;;;;;;20.79;51.22;100967.72;5038869;28;20036;-83
2022/03/03 10:34:30;;;;;;;12.35;3.10;;;;;;;20.98;50.07;100973.88;5046735;28;20037;-82
2022/03/03 10:37:01;;;;;;;14.23;2.95;;;;;;;21.25;50.46;100982.41;5046141;28;20124;-83
2022/03/03 10:39:58;;;;;;;8.73;3.33;;;;;;;21.74;47.92;100986.41;5029499;28;20094;-83
2022/03/03 10:42:29;;;;;;;14.13;3.80;;;;;;;22.01;45.69;100995.94;5033821;28;20554;-83
2022/03/03 10:45:12;;;;;;;12.52;2.60;;;;;;;21.46;44.53;100962.63;5046460;28;20028;-83
2022/03/03 10:47:46;;;;;;;12.38;2.60;;;;;;;21.45;44.95;101006.63;5037989;28;20707;-83
2022/03/03 10:50:17;;;;;;;15.40;3.53;;;;;;;21.91;44.86;101002.91;5049875;28;20101;-84
2022/03/03 10:52:44;;;;;;;13.75;3.55;;;;;;;22.17;43.38;101006.09;5044247;28;20033;-84
2022/03/03 10:55:17;;;;;;;11.60;2.72;;;;;;;22.31;42.29;101004.75;5039721;28;20025;-83
2022/03/03 10:57:51;;;;;;;10.02;2.13;;;;;;;22.46;42.35;101008.81;5051733;28;20020;-83
2022/03/03 11:00:28;;;;;;;17.33;3.35;;;;;;;22.66;40.99;101014.63;5047614;28;20028;-82
2022/03/03 11:02:59;;;;;;;9.35;2.55;;;;;;;22.19;40.54;100998.50;5045109;28;20048;-85
2022/03/03 11:05:27;;;;;;;8.18;2.35;;;;;;;22.01;41.06;101013.19;5028355;28;20039;-83
2022/03/03 11:07:53;;;;;;;8.88;3.08;;;;;;;21.82;41.28;101011.75;5066739;28;20029;-82
2022/03/03 11:10:21;;;;;;;9.38;2.95;;;;;;;21.75;40.51;100987.25;5031093;28;20102;-88
2022/03/03 11:12:47;;;;;;;6.35;2.47;;;;;;;22.14;40.17;101018.38;5030028;28;20029;-83
2022/03/03 11:15:20;;;;;;;9.30;2.90;;;;;;;22.15;39.19;101022.78;5045085;28;20469;-82
2022/03/03 11:17:47;;;;;;;6.53;2.90;;;;;;;22.07;40.51;101022.31;5063434;28;20035;-83
2022/03/03 11:20:15;;;;;;;10.93;2.50;;;;;;;22.27;38.89;100992.59;5038174;28;20497;-84